Time;durP1;ratioP1;P1;durP2;ratioP2;P2;SDS_P1;SDS_P2;PMS_P1;PMS_P2;Temp;Humidity;BMP_temperature;BMP_pressure;BME280_temperature;BME280_humidity;BME280_pressure;Samples;Min_cycle;Max_cycle;Signal;HPM_P1;HPM_P2
2024/02/07 00:00:03;;;;;;;10.73;6.17;;;11.90;99.90;;;;;;5096326;28;20185;-88
2024/02/07 00:02:29;;;;;;;8.83;5.73;;;11.90;99.90;;;;;;5096192;28;20187;-89
2024/02/07 00:04:55;;;;;;;13.33;6.73;;;11.90;99.90;;;;;;5095143;28;20167;-86
2024/02/07 00:07:20;;;;;;;14.50;5.77;;;11.90;99.90;;;;;;5096591;28;20213;-88
2024/02/07 00:09:46;;;;;;;11.23;6.53;;;11.80;99.90;;;;;;5096294;28;20538;-88
2024/02/07 00:12:12;;;;;;;10.67;6.27;;;11.80;99.90;;;;;;5096085;28;20706;-86
2024/02/07 00:14:37;;;;;;;10.70;6.03;;;11.80;99.90;;;;;;5094590;28;20638;-87
2024/02/07 00:17:03;;;;;;;13.87;6.37;;;11.70;99.90;;;;;;5095896;28;20204;-87
2024/02/07 00:19:30;;;;;;;12.73;5.93;;;11.70;99.90;;;;;;5095744;28;20200;-86
2024/02/07 00:21:56;;;;;;;15.87;6.90;;;11.70;99.90;;;;;;5095517;28;20185;-86
2024/02/07 00:24:22;;;;;;;13.40;7.13;;;11.70;99.90;;;;;;5095257;28;20234;-88
2024/02/07 00:26:48;;;;;;;13.93;6.97;;;11.60;99.90;;;;;;5095766;28;20169;-86
2024/02/07 00:29:14;;;;;;;15.43;6.93;;;11.60;99.90;;;;;;5094847;28;20595;-87
2024/02/07 00:31:39;;;;;;;10.93;5.80;;;11.70;99.90;;;;;;5113673;28;20169;-86
2024/02/07 00:34:05;;;;;;;11.50;6.67;;;11.70;99.90;;;;;;5096208;28;20320;-86
2024/02/07 00:36:31;;;;;;;15.13;7.23;;;11.70;99.90;;;;;;5113727;28;20228;-86
2024/02/07 00:38:57;;;;;;;16.30;7.77;;;11.60;99.90;;;;;;5096869;28;20633;-86
2024/02/07 00:41:24;;;;;;;14.10;7.20;;;11.70;99.90;;;;;;5114606;28;20240;-85
2024/02/07 00:43:51;;;;;;;12.10;6.30;;;11.70;99.90;;;;;;5096709;28;20176;-90
2024/02/07 00:46:16;;;;;;;12.70;7.20;;;11.60;99.90;;;;;;5094581;28;20163;-86
2024/02/07 00:48:42;;;;;;;14.13;7.53;;;11.60;99.90;;;;;;5094551;28;20307;-87
2024/02/07 00:51:09;;;;;;;13.90;6.60;;;11.60;99.90;;;;;;5095289;28;20179;-85
2024/02/07 00:53:34;;;;;;;11.90;6.30;;;11.60;99.90;;;;;;5095264;28;20169;-86
2024/02/07 00:56:00;;;;;;;13.40;6.30;;;11.60;99.90;;;;;;5095637;28;20221;-86
2024/02/07 00:58:26;;;;;;;13.23;7.00;;;11.50;99.90;;;;;;5095420;28;20678;-87
2024/02/07 01:00:55;;;;;;;12.80;6.63;;;11.60;99.90;;;;;;5094526;28;20277;-87
2024/02/07 01:03:21;;;;;;;12.17;6.37;;;11.60;99.90;;;;;;5095196;28;20169;-86
2024/02/07 01:05:47;;;;;;;16.10;6.30;;;11.60;99.90;;;;;;5115463;28;20180;-86
2024/02/07 01:08:13;;;;;;;12.20;6.83;;;11.50;99.90;;;;;;5118448;28;20200;-86
2024/02/07 01:10:39;;;;;;;13.47;6.97;;;11.60;99.90;;;;;;5119119;28;20178;-87
2024/02/07 01:13:07;;;;;;;11.47;6.93;;;11.60;99.90;;;;;;5112297;28;20270;-86
2024/02/07 01:15:35;;;;;;;15.43;7.23;;;11.60;99.90;;;;;;5106412;28;20167;-87
2024/02/07 01:18:01;;;;;;;12.20;7.10;;;11.60;99.90;;;;;;5098688;28;20172;-85
2024/02/07 01:20:49;;;;;;;12.27;6.93;;;11.60;99.90;;;;;;5095104;28;20679;-86
2024/02/07 01:23:15;;;;;;;19.40;6.90;;;11.60;99.90;;;;;;5113332;28;20237;-86
2024/02/07 01:25:42;;;;;;;13.07;7.03;;;11.60;99.90;;;;;;5095211;28;20647;-86
2024/02/07 01:28:08;;;;;;;13.50;7.00;;;11.40;99.90;;;;;;5095172;28;20228;-87
2024/02/07 01:30:34;;;;;;;16.07;7.13;;;11.40;99.90;;;;;;5095093;28;20175;-87
2024/02/07 01:33:01;;;;;;;14.70;7.07;;;11.50;99.90;;;;;;5094364;28;20682;-86
2024/02/07 01:35:30;;;;;;;10.27;6.47;;;11.50;99.90;;;;;;5095319;28;20163;-86
2024/02/07 01:38:07;;;;;;;9.90;6.20;;;11.50;99.90;;;;;;5095133;28;20209;-87
2024/02/07 01:40:42;;;;;;;13.07;6.63;;;11.50;99.90;;;;;;5093509;28;20261;-86
2024/02/07 01:43:11;;;;;;;12.67;6.63;;;11.50;99.90;;;;;;5094682;28;20173;-86
2024/02/07 01:45:37;;;;;;;10.53;6.10;;;11.50;99.90;;;;;;5093977;28;20208;-89
2024/02/07 01:48:04;;;;;;;10.83;6.23;;;11.50;99.90;;;;;;5094147;28;20248;-86
2024/02/07 01:50:31;;;;;;;12.33;6.37;;;11.50;99.90;;;;;;5095304;28;20172;-86
2024/02/07 01:53:02;;;;;;;11.53;6.03;;;11.50;99.90;;;;;;5093889;28;20288;-87
2024/02/07 01:55:29;;;;;;;10.53;6.23;;;11.50;99.90;;;;;;5094805;28;20189;-87
2024/02/07 01:58:00;;;;;;;12.40;6.73;;;11.50;99.90;;;;;;5098763;28;20188;-86
2024/02/07 02:00:27;;;;;;;13.83;6.27;;;11.50;99.90;;;;;;5098154;28;20199;-88
2024/02/07 02:02:54;;;;;;;12.70;6.20;;;11.60;99.90;;;;;;5099439;28;20192;-87
2024/02/07 02:05:20;;;;;;;12.50;6.00;;;11.60;99.90;;;;;;5102246;28;20180;-86
2024/02/07 02:07:47;;;;;;;9.43;5.17;;;11.60;99.90;;;;;;5100366;28;20214;-87
2024/02/07 02:10:13;;;;;;;11.37;5.80;;;11.60;99.90;;;;;;5097313;28;20639;-87
2024/02/07 02:12:41;;;;;;;12.13;6.60;;;11.60;99.90;;;;;;5098033;28;20239;-88
2024/02/07 02:15:08;;;;;;;11.63;5.90;;;11.60;99.90;;;;;;5098010;28;20167;-88
2024/02/07 02:17:34;;;;;;;11.67;6.00;;;11.60;99.90;;;;;;5097683;28;20583;-86
2024/02/07 02:20:00;;;;;;;10.83;6.33;;;11.60;99.90;;;;;;5097496;28;20187;-87
2024/02/07 02:22:32;;;;;;;12.77;6.60;;;11.60;99.90;;;;;;5098069;28;20177;-87
2024/02/07 02:25:28;;;;;;;10.50;6.07;;;11.70;99.90;;;;;;5098082;28;20175;-87
2024/02/07 02:28:01;;;;;;;13.07;6.10;;;11.60;99.90;;;;;;5096544;28;20240;-88
2024/02/07 02:30:47;;;;;;;16.80;6.37;;;11.60;99.90;;;;;;5097380;28;20213;-87
2024/02/07 02:33:18;;;;;;;11.50;6.30;;;11.60;99.90;;;;;;5098086;28;20190;-88
2024/02/07 02:35:46;;;;;;;8.87;5.53;;;11.60;99.90;;;;;;5097215;28;20526;-88
2024/02/07 02:38:13;;;;;;;11.47;6.00;;;11.60;99.90;;;;;;5097427;28;20182;-87
2024/02/07 02:40:39;;;;;;;11.10;5.97;;;11.60;99.90;;;;;;5097223;28;20170;-87
2024/02/07 02:43:05;;;;;;;11.53;5.43;;;11.60;99.90;;;;;;5115402;28;20181;-85
2024/02/07 02:45:31;;;;;;;14.60;6.67;;;11.60;99.90;;;;;;5097284;28;20173;-87
2024/02/07 02:47:58;;;;;;;10.50;6.37;;;11.60;99.90;;;;;;5097193;28;20247;-88
2024/02/07 02:50:28;;;;;;;9.93;6.00;;;11.50;99.90;;;;;;5097799;28;20615;-88
2024/02/07 02:52:54;;;;;;;11.10;6.03;;;11.50;99.90;;;;;;5096738;28;20163;-87
2024/02/07 02:55:20;;;;;;;10.03;5.83;;;11.50;99.90;;;;;;5097365;28;20167;-87
2024/02/07 02:57:47;;;;;;;9.93;6.47;;;11.50;99.90;;;;;;5097434;28;20245;-86
2024/02/07 03:00:14;;;;;;;9.73;6.40;;;11.50;99.90;;;;;;5096685;28;20631;-87
2024/02/07 03:02:43;;;;;;;12.93;6.30;;;11.50;99.90;;;;;;5097755;28;20266;-87
2024/02/07 03:08:05;;;;;;;10.13;6.53;;;11.50;99.90;;;;;;5114377;28;20234;-87
2024/02/07 03:10:31;;;;;;;9.60;5.90;;;11.50;99.90;;;;;;5096577;28;20167;-87
2024/02/07 03:12:57;;;;;;;10.63;5.73;;;11.40;99.90;;;;;;5097579;28;20164;-87
2024/02/07 03:15:22;;;;;;;12.57;6.87;;;11.50;99.90;;;;;;5097188;28;20201;-87
2024/02/07 03:17:48;;;;;;;9.87;6.20;;;11.50;99.90;;;;;;5097016;28;20627;-90
2024/02/07 03:20:14;;;;;;;11.53;6.50;;;11.50;99.90;;;;;;5097867;28;20226;-88
2024/02/07 03:22:41;;;;;;;13.10;7.43;;;11.50;99.90;;;;;;5106816;28;20173;-88
2024/02/07 03:25:13;;;;;;;8.87;6.57;;;11.50;99.90;;;;;;5102477;28;20179;-84
2024/02/07 03:27:41;;;;;;;10.07;6.63;;;11.50;99.90;;;;;;5103355;28;20703;-86
2024/02/07 03:30:07;;;;;;;9.37;5.80;;;11.50;99.90;;;;;;5101010;28;20176;-87
2024/02/07 03:32:35;;;;;;;11.40;6.40;;;11.50;99.90;;;;;;5096642;28;20187;-89
2024/02/07 03:35:01;;;;;;;9.73;5.70;;;11.50;99.90;;;;;;5115037;28;20634;-88
2024/02/07 03:37:28;;;;;;;11.53;6.70;;;11.60;99.90;;;;;;5114419;28;20179;-88
2024/02/07 03:39:54;;;;;;;9.50;5.73;;;11.50;99.90;;;;;;5096466;28;20260;-88
2024/02/07 03:42:21;;;;;;;9.97;5.30;;;11.50;99.90;;;;;;5096076;28;20198;-87
2024/02/07 03:44:58;;;;;;;13.53;6.67;;;11.40;99.90;;;;;;5113927;28;20165;-87
2024/02/07 03:47:24;;;;;;;7.97;5.67;;;11.40;99.90;;;;;;5096539;28;20199;-87
2024/02/07 03:49:54;;;;;;;12.23;5.77;;;11.50;99.90;;;;;;5095466;28;20179;-93
2024/02/07 03:52:20;;;;;;;13.37;6.30;;;11.40;99.90;;;;;;5097168;28;20644;-88
2024/02/07 03:54:52;;;;;;;10.93;6.07;;;11.40;99.90;;;;;;5096335;28;20238;-87
2024/02/07 03:57:20;;;;;;;10.43;6.03;;;11.40;99.90;;;;;;5096329;28;20213;-87
2024/02/07 03:59:50;;;;;;;10.73;5.10;;;11.40;99.90;;;;;;5096129;28;20218;-86
2024/02/07 04:02:22;;;;;;;8.63;5.60;;;11.40;99.90;;;;;;5096353;28;20185;-88
2024/02/07 04:04:51;;;;;;;10.67;5.33;;;11.40;99.90;;;;;;5096197;28;20180;-88
2024/02/07 04:07:23;;;;;;;8.13;4.73;;;11.40;99.90;;;;;;5096164;28;20198;-86
2024/02/07 04:09:49;;;;;;;8.50;5.30;;;11.40;99.90;;;;;;5096514;28;20175;-87
2024/02/07 05:17:19;;;;;;;6.20;5.53;;;8.10;99.90;;;;;;5112869;28;20171;-85
2024/02/07 05:19:48;;;;;;;5.40;4.23;;;8.00;99.90;;;;;;5093966;28;20533;-84
2024/02/07 05:22:16;;;;;;;4.07;2.60;;;7.90;99.90;;;;;;5094588;28;20198;-84
2024/02/07 05:24:46;;;;;;;3.03;1.80;;;7.70;99.90;;;;;;5094440;28;20179;-85
2024/02/07 05:27:12;;;;;;;2.87;1.77;;;7.60;99.90;;;;;;5094766;28;20175;-85
2024/02/07 05:29:39;;;;;;;2.23;1.73;;;7.60;99.90;;;;;;5094230;28;20665;-85
2024/02/07 05:32:06;;;;;;;2.33;1.50;;;7.60;99.90;;;;;;5095449;28;20659;-90
2024/02/07 05:34:33;;;;;;;2.80;2.03;;;7.50;99.90;;;;;;5097795;28;20584;-85
2024/02/07 05:36:59;;;;;;;2.97;2.20;;;7.50;99.90;;;;;;5097982;28;20171;-85
2024/02/07 05:39:26;;;;;;;2.47;1.90;;;7.50;99.90;;;;;;5097983;28;20194;-85
2024/02/07 05:41:52;;;;;;;3.27;2.17;;;7.50;99.90;;;;;;5097861;28;20167;-85
2024/02/07 05:44:18;;;;;;;2.47;1.67;;;7.40;99.90;;;;;;5096864;28;20751;-85
2024/02/07 05:46:44;;;;;;;2.30;1.80;;;7.40;99.90;;;;;;5097685;28;20264;-84
2024/02/07 05:49:13;;;;;;;3.37;1.90;;;7.20;99.90;;;;;;5097234;28;20211;-85
2024/02/07 05:51:40;;;;;;;4.20;1.80;;;7.20;99.90;;;;;;5098428;28;20258;-85
2024/02/07 05:54:07;;;;;;;2.97;2.57;;;7.20;99.90;;;;;;5098459;28;20695;-90
2024/02/07 05:56:34;;;;;;;3.57;2.53;;;7.20;99.90;;;;;;5098024;28;20174;-85
2024/02/07 05:58:59;;;;;;;3.27;2.80;;;7.20;99.90;;;;;;5097898;28;20225;-85
2024/02/07 06:01:26;;;;;;;3.83;2.70;;;7.20;99.90;;;;;;5097909;28;20180;-84
2024/02/07 06:03:53;;;;;;;2.87;2.40;;;7.20;99.90;;;;;;5098587;28;20589;-84
2024/02/07 06:06:20;;;;;;;4.53;2.47;;;7.20;99.90;;;;;;5097346;28;20215;-84
2024/02/07 06:08:47;;;;;;;3.67;2.67;;;7.20;99.90;;;;;;5098352;28;20214;-85
2024/02/07 06:11:14;;;;;;;3.63;2.90;;;7.10;99.90;;;;;;5098294;28;20714;-85
2024/02/07 06:13:40;;;;;;;5.13;3.57;;;7.10;99.90;;;;;;5100396;28;20167;-86
2024/02/07 06:16:06;;;;;;;4.57;3.13;;;7.10;99.90;;;;;;5101883;28;20282;-87
2024/02/07 06:18:31;;;;;;;5.40;3.30;;;7.10;99.90;;;;;;5097935;28;20202;-86
2024/02/07 06:20:57;;;;;;;3.67;2.97;;;7.20;99.90;;;;;;5098134;28;20650;-85
2024/02/07 06:23:24;;;;;;;5.77;3.67;;;7.10;99.90;;;;;;5096481;28;20171;-84
2024/02/07 06:25:49;;;;;;;4.77;3.23;;;6.90;99.90;;;;;;5098368;28;20627;-85
2024/02/07 06:28:15;;;;;;;4.20;3.30;;;6.90;99.90;;;;;;5098446;28;20205;-85
2024/02/07 06:30:43;;;;;;;7.17;3.93;;;6.90;99.90;;;;;;5098005;28;20182;-84
2024/02/07 06:33:09;;;;;;;7.63;5.13;;;6.90;99.90;;;;;;5097884;28;20183;-84
2024/02/07 06:35:35;;;;;;;2.67;1.87;;;6.90;99.90;;;;;;5097851;28;20178;-85
2024/02/07 06:38:01;;;;;;;3.53;2.00;;;6.80;99.90;;;;;;5097698;28;20174;-83
2024/02/07 06:40:28;;;;;;;4.60;1.80;;;6.60;99.90;;;;;;5097105;28;20313;-80
2024/02/07 06:42:54;;;;;;;3.83;1.30;;;6.60;99.90;;;;;;5096676;28;20262;-81
2024/02/07 06:45:19;;;;;;;3.37;1.70;;;6.60;99.90;;;;;;5095905;28;20620;-84
2024/02/07 06:47:45;;;;;;;3.70;1.70;;;6.50;99.90;;;;;;5096176;28;20697;-83
2024/02/07 06:50:11;;;;;;;4.37;1.60;;;6.60;99.90;;;;;;5094974;28;20170;-84
2024/02/07 06:52:39;;;;;;;4.63;1.73;;;6.60;99.90;;;;;;5116132;28;20258;-85
2024/02/07 06:55:05;;;;;;;5.00;2.20;;;6.50;99.90;;;;;;5096832;28;20171;-84
2024/02/07 06:57:31;;;;;;;6.00;2.00;;;6.50;99.90;;;;;;5096947;28;20221;-91
2024/02/07 06:59:58;;;;;;;4.20;2.40;;;6.60;99.90;;;;;;5114632;28;20183;-89
2024/02/07 07:02:23;;;;;;;4.40;1.90;;;6.50;99.90;;;;;;5080869;28;20179;-85
2024/02/07 07:04:50;;;;;;;2.83;1.67;;;6.60;99.90;;;;;;5072886;28;20221;-83
2024/02/07 07:07:16;;;;;;;2.67;1.47;;;6.40;99.90;;;;;;5074206;28;20167;-86
2024/02/07 07:09:42;;;;;;;3.43;1.40;;;6.30;99.90;;;;;;5075687;28;20236;-81
2024/02/07 07:12:08;;;;;;;3.23;1.53;;;6.30;99.90;;;;;;5075845;28;20569;-80
2024/02/07 07:14:40;;;;;;;3.77;1.27;;;6.30;99.90;;;;;;5096890;28;20172;-83
2024/02/07 07:17:06;;;;;;;2.77;1.60;;;6.20;99.90;;;;;;5097683;28;20171;-81
2024/02/07 07:19:31;;;;;;;3.67;1.63;;;6.20;99.90;;;;;;5116838;28;20175;-81
2024/02/07 07:21:57;;;;;;;4.23;1.47;;;6.10;99.90;;;;;;5115125;28;20187;-83
2024/02/07 07:24:26;;;;;;;4.70;1.90;;;6.20;99.90;;;;;;5101554;28;20183;-83
2024/02/07 07:26:51;;;;;;;4.97;1.97;;;6.00;99.90;;;;;;5098548;28;20172;-84
2024/02/07 07:29:18;;;;;;;4.53;1.77;;;6.30;99.90;;;;;;5095431;28;20543;-85
2024/02/07 07:31:44;;;;;;;4.13;1.83;;;6.30;99.90;;;;;;5095299;28;20171;-91
2024/02/07 07:34:10;;;;;;;4.27;1.50;;;6.10;99.90;;;;;;5094835;28;20274;-85
2024/02/07 07:36:37;;;;;;;5.40;1.60;;;6.00;99.90;;;;;;5118463;28;20214;-83
2024/02/07 07:39:03;;;;;;;5.83;1.87;;;6.00;99.90;;;;;;5095173;28;20183;-85
2024/02/07 07:41:29;;;;;;;6.37;2.03;;;5.90;99.90;;;;;;5093478;28;20239;-85
2024/02/07 07:43:57;;;;;;;4.77;1.60;;;5.90;99.90;;;;;;5094456;28;20883;-86
2024/02/07 07:46:23;;;;;;;8.10;2.00;;;5.80;99.90;;;;;;5093654;28;20181;-84
2024/02/07 07:48:49;;;;;;;5.30;2.23;;;5.90;99.90;;;;;;5094417;28;20210;-83
2024/02/07 07:51:19;;;;;;;6.73;2.80;;;5.70;99.90;;;;;;5094236;28;20163;-83
2024/02/07 07:53:46;;;;;;;5.93;2.10;;;5.70;99.90;;;;;;5097596;28;20227;-83
2024/02/07 07:56:12;;;;;;;7.47;2.50;;;5.80;99.90;;;;;;5096960;28;20163;-84
2024/02/07 07:58:40;;;;;;;5.97;3.00;;;5.80;99.90;;;;;;5096002;28;20191;-84
2024/02/07 08:01:13;;;;;;;8.13;3.87;;;5.80;99.90;;;;;;5095790;28;20602;-83
2024/02/07 08:03:39;;;;;;;6.63;3.30;;;5.90;99.90;;;;;;5093700;28;20182;-82
2024/02/07 08:06:06;;;;;;;6.60;3.43;;;5.80;99.90;;;;;;5094108;28;20171;-88
2024/02/07 08:08:33;;;;;;;5.37;3.50;;;5.80;99.90;;;;;;5095022;28;20194;-84
2024/02/07 08:10:59;;;;;;;6.53;3.13;;;5.70;99.90;;;;;;5095023;28;20259;-84
2024/02/07 08:13:25;;;;;;;5.23;3.00;;;5.90;99.90;;;;;;5094655;28;20167;-91
2024/02/07 08:15:50;;;;;;;6.33;3.20;;;5.90;99.90;;;;;;5094811;28;20174;-83
2024/02/07 08:18:16;;;;;;;6.93;3.53;;;5.90;99.90;;;;;;5095129;28;20178;-85
2024/02/07 08:20:42;;;;;;;5.90;3.20;;;6.20;99.90;;;;;;5094696;28;20720;-85
2024/02/07 08:23:07;;;;;;;3.70;2.70;;;6.10;99.90;;;;;;5095349;28;20262;-87
2024/02/07 08:25:33;;;;;;;4.40;2.50;;;6.10;99.90;;;;;;5094913;28;20525;-83
2024/02/07 08:27:59;;;;;;;3.50;2.73;;;6.00;99.90;;;;;;5095620;28;20754;-85
2024/02/07 08:30:24;;;;;;;7.67;2.50;;;6.10;99.90;;;;;;5095140;28;20212;-82
2024/02/07 08:32:50;;;;;;;7.93;2.27;;;6.10;99.90;;;;;;5113349;28;20194;-85
2024/02/07 08:35:16;;;;;;;6.63;2.00;;;6.00;99.90;;;;;;5091181;28;20171;-85
2024/02/07 08:37:43;;;;;;;6.30;2.10;;;5.90;99.90;;;;;;5078642;28;20775;-85
2024/02/07 08:40:09;;;;;;;8.37;2.40;;;6.00;99.90;;;;;;5096014;28;20175;-85
2024/02/07 08:42:37;;;;;;;10.87;2.80;;;6.00;99.90;;;;;;5096255;28;20635;-86
2024/02/07 08:45:03;;;;;;;7.97;2.10;;;6.00;99.90;;;;;;5098612;28;20183;-85
2024/02/07 08:47:29;;;;;;;6.27;1.83;;;6.00;99.90;;;;;;5095337;28;20191;-85
2024/02/07 08:49:55;;;;;;;6.03;1.97;;;6.00;99.90;;;;;;5098464;28;20641;-86
2024/02/07 08:52:21;;;;;;;9.07;1.97;;;6.10;99.90;;;;;;5101419;28;20193;-86
2024/02/07 08:54:48;;;;;;;10.17;2.13;;;6.00;99.90;;;;;;5099122;28;20194;-85
2024/02/07 08:57:27;;;;;;;5.03;2.70;;;6.10;99.90;;;;;;5106994;28;20191;-86
2024/02/07 08:59:52;;;;;;;5.97;2.20;;;6.10;99.90;;;;;;5104602;28;20573;-85
2024/02/07 09:02:19;;;;;;;6.87;2.17;;;6.10;99.90;;;;;;5094915;28;20631;-85
2024/02/07 09:04:45;;;;;;;5.20;1.67;;;6.30;99.90;;;;;;5084828;28;20229;-83
2024/02/07 09:07:11;;;;;;;6.80;2.37;;;6.20;99.90;;;;;;5085766;28;20650;-82
2024/02/07 09:09:37;;;;;;;7.43;1.93;;;6.60;99.90;;;;;;5098489;28;20178;-83
2024/02/07 09:12:03;;;;;;;6.40;1.83;;;6.70;99.90;;;;;;5098635;28;20175;-84
2024/02/07 09:14:29;;;;;;;6.63;2.10;;;6.90;99.90;;;;;;5098454;28;20266;-84
2024/02/07 09:16:54;;;;;;;8.37;2.20;;;7.00;99.90;;;;;;5116379;28;20250;-84
2024/02/07 09:19:20;;;;;;;7.80;2.00;;;7.10;99.90;;;;;;5098342;28;20175;-84
2024/02/07 09:21:52;;;;;;;6.23;1.90;;;7.20;99.90;;;;;;5099775;28;20603;-82
2024/02/07 09:24:17;;;;;;;6.90;1.93;;;7.00;99.90;;;;;;5101334;28;20634;-83
2024/02/07 09:26:44;;;;;;;8.40;2.00;;;6.90;99.90;;;;;;5107207;28;20189;-83
2024/02/07 09:29:10;;;;;;;8.43;2.40;;;6.80;99.90;;;;;;5100055;28;20210;-80
2024/02/07 09:31:35;;;;;;;6.10;1.77;;;6.90;99.90;;;;;;5103306;28;20193;-78
2024/02/07 09:34:02;;;;;;;5.33;1.87;;;7.20;99.90;;;;;;5119600;28;20175;-87
2024/02/07 09:36:29;;;;;;;2.93;1.20;;;6.90;99.90;;;;;;5104636;28;20166;-88
2024/02/07 09:38:55;;;;;;;6.67;2.90;;;6.80;99.90;;;;;;5102412;28;20178;-89
2024/02/07 09:41:23;;;;;;;6.50;2.30;;;6.70;99.90;;;;;;5102298;28;20573;-87
2024/02/07 09:43:51;;;;;;;10.50;2.70;;;6.60;99.90;;;;;;5101572;28;20170;-88
2024/02/07 09:46:21;;;;;;;5.77;2.37;;;6.60;99.90;;;;;;5102795;28;20169;-87
2024/02/07 09:48:49;;;;;;;5.50;2.57;;;6.30;99.90;;;;;;5119011;28;20237;-89
2024/02/07 09:51:15;;;;;;;5.83;3.20;;;6.20;99.90;;;;;;5098327;28;20171;-86
2024/02/07 09:53:42;;;;;;;6.67;2.73;;;6.20;99.90;;;;;;5098347;28;20177;-91
2024/02/07 09:56:08;;;;;;;4.07;2.60;;;6.10;99.90;;;;;;5081238;28;20642;-84
2024/02/07 09:58:34;;;;;;;6.73;2.50;;;5.90;99.90;;;;;;5104329;28;20663;-85
2024/02/07 10:01:02;;;;;;;7.60;2.40;;;6.00;99.90;;;;;;5096947;28;20239;-85
2024/02/07 10:03:30;;;;;;;7.13;2.47;;;5.90;99.90;;;;;;5115397;28;20197;-86
2024/02/07 10:06:00;;;;;;;2.93;1.90;;;5.90;99.90;;;;;;5096444;28;20237;-86
2024/02/07 10:08:28;;;;;;;3.63;2.43;;;5.90;99.90;;;;;;5096312;28;20226;-86
2024/02/07 10:10:54;;;;;;;4.53;2.10;;;5.90;99.90;;;;;;5096882;28;20333;-85
2024/02/07 10:13:20;;;;;;;7.03;2.30;;;6.00;99.90;;;;;;5096611;28;20197;-85
2024/02/07 10:15:48;;;;;;;4.40;2.67;;;6.00;99.90;;;;;;5096871;28;20181;-88
2024/02/07 10:18:13;;;;;;;5.73;2.47;;;6.20;99.90;;;;;;5112549;28;20178;-82
2024/02/07 10:20:50;;;;;;;6.87;2.50;;;6.20;99.90;;;;;;5096496;28;20623;-83
2024/02/07 10:23:16;;;;;;;7.50;2.27;;;6.10;99.90;;;;;;5096114;28;20186;-89
2024/02/07 10:25:51;;;;;;;10.57;2.80;;;6.10;99.90;;;;;;5096333;28;20537;-84
2024/02/07 10:28:18;;;;;;;10.37;2.67;;;6.10;99.90;;;;;;5096358;28;20225;-84
2024/02/07 10:30:54;;;;;;;5.83;2.60;;;6.00;99.90;;;;;;5096345;28;20251;-84
2024/02/07 10:33:20;;;;;;;12.70;2.40;;;6.00;99.90;;;;;;5096408;28;20189;-85
2024/02/07 10:35:47;;;;;;;9.00;3.07;;;6.00;99.90;;;;;;5096490;28;20167;-84
2024/02/07 10:38:12;;;;;;;6.57;3.00;;;6.00;99.90;;;;;;5096354;28;20227;-90
2024/02/07 10:40:39;;;;;;;9.10;2.40;;;6.00;99.90;;;;;;5096099;28;20265;-83
2024/02/07 10:43:06;;;;;;;10.63;3.33;;;6.10;99.90;;;;;;5114612;28;20194;-86
2024/02/07 10:45:32;;;;;;;11.07;3.40;;;6.10;99.90;;;;;;5114109;28;20672;-91
2024/02/07 10:47:58;;;;;;;9.80;3.27;;;6.00;99.90;;;;;;5096193;28;20237;-84
2024/02/07 10:50:23;;;;;;;7.80;2.43;;;6.10;99.90;;;;;;5114020;28;20174;-85
2024/02/07 10:52:49;;;;;;;13.37;3.23;;;6.10;99.90;;;;;;5114279;28;20171;-85
2024/02/07 10:55:16;;;;;;;13.93;3.70;;;6.00;99.90;;;;;;5095390;28;20266;-85
2024/02/07 10:57:46;;;;;;;9.57;2.63;;;6.00;99.90;;;;;;5115482;28;20187;-85
2024/02/07 11:00:13;;;;;;;10.40;2.70;;;6.10;99.90;;;;;;5053685;28;1218224;-84
2024/02/07 11:02:40;;;;;;;13.33;3.07;;;6.10;99.90;;;;;;5096629;28;20179;-83
2024/02/07 11:05:06;;;;;;;10.10;3.20;;;6.10;99.90;;;;;;5096740;28;20175;-87
2024/02/07 11:07:32;;;;;;;9.17;2.83;;;6.00;99.90;;;;;;5096202;28;20251;-84
2024/02/07 11:09:58;;;;;;;10.17;2.77;;;6.10;99.90;;;;;;5096276;28;20523;-86
2024/02/07 11:12:24;;;;;;;10.83;2.43;;;6.10;99.90;;;;;;5096442;28;20176;-83
2024/02/07 11:14:51;;;;;;;9.67;2.40;;;6.00;99.90;;;;;;5096204;28;20171;-85
2024/02/07 11:17:18;;;;;;;9.10;3.00;;;6.10;99.90;;;;;;5096198;28;20653;-85
2024/02/07 11:19:47;;;;;;;8.93;3.20;;;6.00;99.90;;;;;;5096295;28;20258;-89
2024/02/07 11:22:20;;;;;;;13.13;3.30;;;6.20;99.90;;;;;;5097083;28;20173;-93
2024/02/07 11:24:47;;;;;;;9.83;3.10;;;6.30;99.90;;;;;;5095717;28;20186;-85
2024/02/07 11:27:13;;;;;;;8.63;2.83;;;6.20;99.90;;;;;;5096190;28;20537;-87
2024/02/07 11:29:41;;;;;;;9.37;3.30;;;6.30;99.90;;;;;;5093553;28;20182;-85
2024/02/07 11:32:08;;;;;;;7.80;3.23;;;6.30;99.90;;;;;;5096576;28;20591;-84
2024/02/07 11:34:40;;;;;;;12.03;3.33;;;6.40;99.90;;;;;;5113434;28;20182;-83
2024/02/07 11:37:10;;;;;;;8.23;2.90;;;6.60;99.90;;;;;;5100129;28;20238;-85
2024/02/07 11:39:42;;;;;;;7.80;3.17;;;6.60;99.90;;;;;;5096565;28;20179;-85
2024/02/07 11:42:12;;;;;;;10.10;3.40;;;6.80;99.90;;;;;;5096210;28;20178;-87
2024/02/07 11:44:59;;;;;;;5.57;2.70;;;6.80;99.90;;;;;;5095619;28;20171;-85
2024/02/07 11:47:27;;;;;;;6.40;3.27;;;6.80;99.90;;;;;;5095646;28;20249;-86
2024/02/07 11:50:00;;;;;;;5.83;3.17;;;6.70;99.90;;;;;;5114068;28;20171;-86
2024/02/07 11:52:30;;;;;;;6.77;3.13;;;6.80;99.90;;;;;;5096295;28;20175;-84
2024/02/07 11:55:25;;;;;;;7.90;3.10;;;6.90;99.90;;;;;;5114180;28;20174;-85
2024/02/07 11:57:55;;;;;;;6.63;3.00;;;6.90;99.90;;;;;;5074654;28;20694;-86
2024/02/07 12:00:22;;;;;;;7.30;2.77;;;6.80;99.90;;;;;;5096363;28;20191;-85
2024/02/07 12:02:58;;;;;;;4.80;2.57;;;6.70;99.90;;;;;;5095926;28;20170;-87
2024/02/07 12:05:25;;;;;;;6.03;2.10;;;6.60;99.90;;;;;;5096125;28;20630;-93
2024/02/07 12:07:53;;;;;;;7.10;2.47;;;6.70;99.90;;;;;;5095510;28;20678;-91
2024/02/07 12:10:19;;;;;;;10.00;2.73;;;6.70;99.90;;;;;;5095889;28;20205;-84
2024/02/07 12:12:49;;;;;;;6.40;2.70;;;6.70;99.90;;;;;;5094951;28;20736;-85
2024/02/07 12:15:15;;;;;;;7.67;2.07;;;6.80;99.90;;;;;;5113639;28;20512;-84
2024/02/07 12:17:41;;;;;;;5.90;2.37;;;6.70;99.90;;;;;;5095385;28;20178;-85
2024/02/07 12:20:07;;;;;;;8.90;2.57;;;6.70;99.90;;;;;;5095294;28;20627;-84
2024/02/07 12:22:36;;;;;;;7.27;1.97;;;6.80;99.90;;;;;;5094949;28;20247;-86
2024/02/07 12:25:04;;;;;;;6.67;2.00;;;6.80;99.90;;;;;;5087754;28;20175;-82
2024/02/07 12:27:30;;;;;;;3.57;1.63;;;6.70;99.90;;;;;;5074125;28;20216;-85
2024/02/07 12:29:58;;;;;;;5.30;1.50;;;6.70;99.90;;;;;;5075568;28;20217;-91
2024/02/07 12:32:24;;;;;;;6.27;2.07;;;6.60;99.90;;;;;;5074739;28;20180;-84
2024/02/07 12:34:51;;;;;;;7.43;2.17;;;6.70;99.90;;;;;;5076454;28;20566;-92
2024/02/07 12:37:18;;;;;;;6.10;2.00;;;6.90;99.90;;;;;;5077592;28;20172;-91
2024/02/07 12:39:47;;;;;;;5.70;2.00;;;6.80;99.90;;;;;;5097559;28;20487;-91
2024/02/07 12:42:24;;;;;;;4.97;2.20;;;6.80;99.90;;;;;;5097577;28;20197;-85
2024/02/07 12:44:50;;;;;;;5.00;1.70;;;6.80;99.90;;;;;;5097671;28;20175;-85
2024/02/07 12:47:20;;;;;;;6.30;2.00;;;6.70;99.90;;;;;;5093679;28;20643;-83
2024/02/07 12:49:48;;;;;;;5.33;2.07;;;6.50;99.90;;;;;;5078530;28;20175;-94
2024/02/07 12:52:14;;;;;;;5.90;1.97;;;6.60;99.90;;;;;;5101081;28;20214;-82
2024/02/07 12:54:40;;;;;;;6.80;1.60;;;6.50;99.90;;;;;;5108783;28;20237;-83
2024/02/07 12:57:06;;;;;;;5.37;1.60;;;6.50;99.90;;;;;;5077428;28;20278;-86
2024/02/07 12:59:33;;;;;;;4.03;1.70;;;6.50;99.90;;;;;;5098572;28;20198;-86
2024/02/07 13:02:04;;;;;;;5.00;1.77;;;6.40;99.90;;;;;;5096144;28;20198;-93
2024/02/07 13:04:32;;;;;;;4.20;1.83;;;6.40;99.90;;;;;;5094793;28;20282;-85
2024/02/07 13:07:00;;;;;;;3.37;1.10;;;6.40;99.90;;;;;;5096111;28;20654;-87
2024/02/07 13:09:26;;;;;;;4.43;1.33;;;6.30;99.90;;;;;;5093475;28;20214;-86
2024/02/07 13:11:53;;;;;;;2.77;1.17;;;6.30;99.90;;;;;;5093133;28;20163;-87
2024/02/07 13:14:18;;;;;;;4.33;1.50;;;6.20;99.90;;;;;;5093878;28;20208;-86
2024/02/07 13:16:45;;;;;;;2.90;1.20;;;6.20;99.90;;;;;;5093479;28;20229;-85
2024/02/07 13:19:15;;;;;;;6.57;1.30;;;6.20;99.90;;;;;;5094444;28;20175;-85
2024/02/07 13:21:42;;;;;;;4.83;1.50;;;6.20;99.90;;;;;;5094879;28;20209;-85
2024/02/07 13:24:18;;;;;;;3.67;1.47;;;6.20;99.90;;;;;;5095397;28;20171;-86
2024/02/07 13:26:45;;;;;;;2.50;1.00;;;6.30;99.90;;;;;;5093920;28;20177;-84
2024/02/07 13:29:11;;;;;;;3.73;1.10;;;6.20;99.90;;;;;;5091325;28;20240;-86
2024/02/07 13:31:40;;;;;;;2.00;1.00;;;6.20;99.90;;;;;;5091527;28;20179;-83
2024/02/07 13:34:11;;;;;;;2.67;1.27;;;6.20;99.90;;;;;;5091835;28;20167;-85
2024/02/07 13:36:37;;;;;;;5.40;1.53;;;6.30;99.90;;;;;;5092182;28;20178;-85
2024/02/07 13:39:04;;;;;;;2.30;1.10;;;6.50;99.90;;;;;;5091314;28;20282;-85
2024/02/07 13:41:31;;;;;;;3.37;1.20;;;6.40;99.90;;;;;;5095394;28;20305;-84
2024/02/07 13:43:57;;;;;;;4.10;1.23;;;6.50;99.90;;;;;;5095463;28;20190;-87
2024/02/07 13:46:23;;;;;;;3.13;1.10;;;6.50;99.90;;;;;;5113092;28;20186;-85
2024/02/07 13:48:49;;;;;;;3.90;1.20;;;6.60;99.90;;;;;;5094842;28;20226;-86
2024/02/07 13:51:15;;;;;;;4.27;1.47;;;6.60;99.90;;;;;;5094291;28;20174;-86
2024/02/07 13:53:41;;;;;;;3.60;1.50;;;6.80;99.90;;;;;;5095770;28;20266;-85
2024/02/07 13:56:08;;;;;;;3.23;1.00;;;7.10;99.90;;;;;;5115614;28;20296;-87
2024/02/07 13:58:34;;;;;;;3.50;1.60;;;7.10;99.90;;;;;;5095603;28;20202;-85